Time;durP1;ratioP1;P1;durP2;ratioP2;P2;SDS_P1;SDS_P2;PMS_P1;PMS_P2;Temp;Humidity;BMP_temperature;BMP_pressure;BME280_temperature;BME280_humidity;BME280_pressure;Samples;Min_cycle;Max_cycle;Signal;HPM_P1;HPM_P2
2022/10/12 00:00:01;;;;;;;13.70;12.30;;;13.70;99.90;;;;;;6119743;23;20438;-73
2022/10/12 00:02:28;;;;;;;15.70;13.30;;;13.70;99.90;;;;;;6118336;23;20438;-73
2022/10/12 00:04:55;;;;;;;13.97;12.63;;;13.60;99.90;;;;;;6120828;23;20464;-73
2022/10/12 00:07:22;;;;;;;15.00;13.03;;;13.60;99.90;;;;;;6119426;23;20476;-73
2022/10/12 00:09:49;;;;;;;13.23;11.80;;;13.60;99.90;;;;;;6119173;23;20472;-73
2022/10/12 00:12:16;;;;;;;12.30;11.10;;;13.60;99.90;;;;;;6121664;23;20986;-73
2022/10/12 00:14:43;;;;;;;16.33;12.33;;;13.50;99.90;;;;;;6120636;23;20463;-73
2022/10/12 00:17:11;;;;;;;13.83;12.30;;;13.50;99.90;;;;;;6120916;23;20941;-73
2022/10/12 00:19:39;;;;;;;13.60;12.17;;;13.50;99.90;;;;;;6120064;23;20442;-72
2022/10/12 00:22:06;;;;;;;14.17;12.70;;;13.50;99.90;;;;;;6121275;23;21197;-73
2022/10/12 00:24:33;;;;;;;14.00;10.90;;;13.50;99.90;;;;;;6120782;23;20480;-73
2022/10/12 00:27:00;;;;;;;13.80;12.47;;;13.50;99.90;;;;;;6121552;23;20496;-73
2022/10/12 00:29:28;;;;;;;12.93;11.63;;;13.50;99.90;;;;;;6119795;23;20538;-73
2022/10/12 00:31:55;;;;;;;13.00;11.80;;;13.50;99.90;;;;;;6118803;23;20493;-73
2022/10/12 00:34:24;;;;;;;13.90;12.70;;;13.50;99.90;;;;;;6118739;23;20512;-74
2022/10/12 00:36:51;;;;;;;14.03;12.60;;;13.50;99.90;;;;;;6119685;23;20433;-73
2022/10/12 00:39:18;;;;;;;15.40;13.40;;;13.60;99.90;;;;;;6122285;23;20442;-73
2022/10/12 00:41:45;;;;;;;13.97;12.47;;;13.50;99.90;;;;;;6120863;23;20464;-73
2022/10/12 00:44:35;;;;;;;13.77;12.37;;;13.50;99.90;;;;;;6121282;23;20429;-73
2022/10/12 00:47:07;;;;;;;19.23;13.80;;;13.50;99.90;;;;;;6120613;23;20526;-73
2022/10/12 00:49:36;;;;;;;14.60;12.67;;;13.40;99.90;;;;;;6120960;23;20467;-73
2022/10/12 00:52:08;;;;;;;15.03;12.40;;;13.40;99.90;;;;;;6119818;23;20442;-73
2022/10/12 00:54:42;;;;;;;14.73;13.23;;;13.30;99.90;;;;;;6121215;23;20928;-73
2022/10/12 00:57:12;;;;;;;13.60;12.17;;;13.30;99.90;;;;;;6120714;23;20439;-73
2022/10/12 00:59:44;;;;;;;14.80;12.97;;;13.30;99.90;;;;;;6124570;23;20441;-73
2022/10/12 01:02:12;;;;;;;14.60;13.00;;;13.30;99.90;;;;;;6120284;23;20442;-73
2022/10/12 01:04:41;;;;;;;14.30;12.70;;;13.30;99.90;;;;;;6121390;23;20431;-73
2022/10/12 01:07:08;;;;;;;13.83;12.53;;;13.20;99.90;;;;;;6120397;23;20438;-73
2022/10/12 01:09:36;;;;;;;14.63;13.10;;;13.20;99.90;;;;;;6123552;23;20465;-73
2022/10/12 01:12:06;;;;;;;15.43;12.87;;;13.10;99.90;;;;;;6120438;23;20447;-73
2022/10/12 01:14:34;;;;;;;14.30;13.00;;;13.10;99.90;;;;;;6120059;23;20458;-72
2022/10/12 01:17:09;;;;;;;14.87;13.37;;;13.00;99.90;;;;;;6121306;23;20487;-72
2022/10/12 01:20:03;;;;;;;14.23;12.73;;;13.00;99.90;;;;;;6113390;23;20429;-73
2022/10/12 01:22:34;;;;;;;13.65;12.43;;;13.00;99.90;;;;;;6121153;23;20473;-73
2022/10/12 01:25:10;;;;;;;15.20;13.85;;;12.90;99.90;;;;;;6108887;23;20191;-73
2022/10/12 01:27:45;;;;;;;14.70;13.23;;;12.90;99.90;;;;;;6120481;23;20270;-73
2022/10/12 01:30:20;;;;;;;15.00;13.60;;;12.90;99.90;;;;;;6119233;23;20476;-73
2022/10/12 01:33:14;;;;;;;14.70;13.30;;;12.80;99.90;;;;;;6120767;23;20203;-73
2022/10/12 01:35:53;;;;;;;15.02;13.57;;;12.80;99.90;;;;;;6119000;23;20729;-72
2022/10/12 01:38:30;;;;;;;15.38;12.98;;;12.70;99.90;;;;;;6118494;23;20552;-73
2022/10/12 01:41:03;;;;;;;16.08;14.30;;;12.70;99.90;;;;;;6119569;23;20274;-73
2022/10/12 01:43:34;;;;;;;15.88;13.88;;;12.70;99.90;;;;;;6122880;23;20302;-73
2022/10/12 01:46:23;;;;;;;15.20;13.80;;;12.60;99.90;;;;;;6120995;23;20323;-73
2022/10/12 01:48:54;;;;;;;16.00;14.40;;;12.60;99.90;;;;;;6108353;23;20441;-73
2022/10/12 01:51:28;;;;;;;16.60;15.05;;;12.60;99.90;;;;;;6119826;23;20203;-73
2022/10/12 01:54:05;;;;;;;15.93;14.32;;;12.60;99.90;;;;;;6122034;23;20194;-73
2022/10/12 01:56:44;;;;;;;16.23;14.15;;;12.50;99.90;;;;;;6121080;23;20241;-73
2022/10/12 01:59:20;;;;;;;16.02;14.60;;;12.50;99.90;;;;;;6169202;23;20268;-73
2022/10/12 02:01:55;;;;;;;15.23;13.80;;;12.50;99.90;;;;;;6120440;23;20613;-73
2022/10/12 02:04:31;;;;;;;15.57;14.00;;;12.50;99.90;;;;;;6120892;23;20187;-73
2022/10/12 02:07:02;;;;;;;15.43;13.98;;;12.50;99.90;;;;;;6115244;23;20191;-73
2022/10/12 02:09:32;;;;;;;16.23;14.73;;;12.40;99.90;;;;;;6117681;23;20199;-73
2022/10/12 02:12:04;;;;;;;14.80;13.40;;;12.40;99.90;;;;;;6119341;23;20584;-73
2022/10/12 02:14:35;;;;;;;16.80;14.70;;;12.40;99.90;;;;;;6119423;23;20654;-72
2022/10/12 02:17:07;;;;;;;15.73;13.23;;;12.40;99.90;;;;;;6118119;23;20207;-73
2022/10/12 02:19:40;;;;;;;14.85;13.55;;;12.30;99.90;;;;;;6120329;23;20687;-73
2022/10/12 02:22:09;;;;;;;15.55;13.95;;;12.30;99.90;;;;;;6120470;23;20195;-73
2022/10/12 02:24:40;;;;;;;16.50;14.90;;;12.20;99.90;;;;;;6120142;23;20198;-73
2022/10/12 02:27:11;;;;;;;16.08;14.43;;;12.20;99.90;;;;;;6120876;23;20191;-73
2022/10/12 02:29:40;;;;;;;15.13;13.25;;;12.20;99.90;;;;;;6117929;23;20247;-73
2022/10/12 02:32:17;;;;;;;15.25;13.68;;;12.20;99.90;;;;;;6120542;23;20257;-72
2022/10/12 02:34:48;;;;;;;16.17;13.95;;;12.10;99.90;;;;;;6119636;23;20198;-73
2022/10/12 02:37:24;;;;;;;17.08;15.55;;;12.20;99.90;;;;;;6121084;23;20240;-73
2022/10/12 02:39:54;;;;;;;16.85;15.25;;;12.20;99.90;;;;;;6118358;23;20244;-73
2022/10/12 02:42:26;;;;;;;17.50;15.80;;;12.20;99.90;;;;;;6120002;23;20195;-73
2022/10/12 02:44:55;;;;;;;16.92;15.00;;;12.20;99.90;;;;;;6119128;23;20437;-73
2022/10/12 02:47:26;;;;;;;17.60;15.30;;;12.20;99.90;;;;;;6120278;23;20226;-73
2022/10/12 02:49:55;;;;;;;18.13;14.90;;;12.20;99.90;;;;;;6119841;23;20644;-73
2022/10/12 02:52:24;;;;;;;18.40;15.18;;;12.30;99.90;;;;;;6120444;23;20441;-73
2022/10/12 02:54:51;;;;;;;16.20;14.50;;;12.30;99.90;;;;;;6118578;23;20286;-73
2022/10/12 02:57:19;;;;;;;17.85;16.13;;;12.30;99.90;;;;;;6120576;23;20286;-73
2022/10/12 02:59:46;;;;;;;17.17;15.40;;;12.50;99.90;;;;;;6113785;23;20195;-73
2022/10/12 03:02:13;;;;;;;17.98;16.08;;;12.30;99.90;;;;;;6127724;23;20195;-73
2022/10/12 03:04:42;;;;;;;16.33;14.63;;;12.40;99.90;;;;;;6117977;23;20199;-73
2022/10/12 03:07:09;;;;;;;15.80;14.20;;;12.40;99.90;;;;;;6120388;23;20192;-73
2022/10/12 03:09:36;;;;;;;15.17;13.70;;;12.40;99.90;;;;;;6117951;23;20270;-73
2022/10/12 03:12:03;;;;;;;16.47;14.70;;;12.40;99.90;;;;;;6119166;23;20449;-73
2022/10/12 03:14:32;;;;;;;18.80;13.52;;;12.40;99.90;;;;;;6118265;23;20480;-73
2022/10/12 03:16:59;;;;;;;14.93;13.43;;;12.40;99.90;;;;;;6120234;23;20290;-73
2022/10/12 03:19:26;;;;;;;14.82;13.30;;;12.40;99.90;;;;;;6118193;23;20202;-73
2022/10/12 03:21:55;;;;;;;14.55;13.15;;;12.40;99.90;;;;;;6119893;23;20199;-73
2022/10/12 03:24:22;;;;;;;18.00;14.10;;;12.30;99.90;;;;;;6118627;23;20195;-73
2022/10/12 03:26:49;;;;;;;14.95;13.63;;;12.30;99.90;;;;;;6119271;23;20195;-73
2022/10/12 03:29:16;;;;;;;16.80;15.10;;;12.40;99.90;;;;;;6126586;23;20679;-73
2022/10/12 03:31:43;;;;;;;15.70;14.20;;;12.40;99.90;;;;;;6123171;23;20220;-73
2022/10/12 03:34:10;;;;;;;14.85;13.43;;;12.40;99.90;;;;;;6117743;23;20300;-73
2022/10/12 03:36:37;;;;;;;16.52;14.82;;;12.40;99.90;;;;;;6119010;23;20295;-73
2022/10/12 03:39:06;;;;;;;15.63;14.10;;;12.40;99.90;;;;;;6108241;23;20274;-73
2022/10/12 03:41:33;;;;;;;17.42;14.40;;;12.50;99.90;;;;;;6118880;23;20218;-73
2022/10/12 03:44:00;;;;;;;15.00;13.60;;;12.40;99.90;;;;;;6117006;23;20203;-73
2022/10/12 03:46:27;;;;;;;15.85;14.15;;;12.50;99.90;;;;;;6114637;23;20600;-74
2022/10/12 03:48:54;;;;;;;14.60;13.07;;;12.50;99.90;;;;;;6089878;23;20657;-74
2022/10/12 03:51:22;;;;;;;18.42;14.57;;;12.40;99.90;;;;;;6118649;23;20227;-73
2022/10/12 03:53:49;;;;;;;17.55;15.65;;;12.30;99.90;;;;;;6119334;23;20223;-73
2022/10/12 03:56:17;;;;;;;15.43;13.70;;;12.30;99.90;;;;;;6119679;23;20247;-73
2022/10/12 03:58:44;;;;;;;15.00;13.50;;;12.30;99.90;;;;;;6131196;23;20222;-73
2022/10/12 04:01:11;;;;;;;16.08;14.57;;;12.30;99.90;;;;;;6115912;23;20628;-73
2022/10/12 04:03:39;;;;;;;15.13;13.48;;;12.30;99.90;;;;;;6120672;23;20199;-73
2022/10/12 04:06:06;;;;;;;17.07;15.23;;;12.30;99.90;;;;;;6128389;23;20211;-73
2022/10/12 04:08:34;;;;;;;16.30;13.95;;;12.30;99.90;;;;;;6094837;23;20863;-73
2022/10/12 04:11:00;;;;;;;15.43;14.02;;;12.30;99.90;;;;;;6121050;23;20661;-73
2022/10/12 04:13:29;;;;;;;14.80;13.25;;;12.30;99.90;;;;;;6117851;23;20556;-73
2022/10/12 04:16:00;;;;;;;15.48;13.80;;;12.30;99.90;;;;;;6121171;23;20672;-73
2022/10/12 04:18:27;;;;;;;16.13;14.52;;;12.20;99.90;;;;;;6119885;23;20221;-73
2022/10/12 04:20:55;;;;;;;16.88;15.15;;;12.20;99.90;;;;;;6120029;23;20588;-73
2022/10/12 04:23:22;;;;;;;15.95;14.10;;;12.20;99.90;;;;;;6119184;23;20192;-73
2022/10/12 04:25:49;;;;;;;17.13;15.32;;;12.00;99.90;;;;;;6120212;23;20183;-73
2022/10/12 04:28:17;;;;;;;16.45;14.73;;;11.80;99.90;;;;;;6070512;23;20203;-72
2022/10/12 04:30:46;;;;;;;17.20;15.07;;;11.70;99.90;;;;;;6115263;23;20203;-74
2022/10/12 04:33:13;;;;;;;21.42;18.52;;;11.70;99.90;;;;;;6120697;23;20241;-74
2022/10/12 04:35:40;;;;;;;19.83;17.75;;;11.70;99.90;;;;;;6118871;23;20211;-74
2022/10/12 04:38:07;;;;;;;18.10;16.23;;;11.70;99.90;;;;;;6120621;23;20202;-74
2022/10/12 04:40:34;;;;;;;19.05;17.25;;;11.70;99.90;;;;;;6115311;23;20200;-74
2022/10/12 04:43:02;;;;;;;17.95;16.20;;;11.80;99.90;;;;;;6127059;23;20222;-73
2022/10/12 04:45:29;;;;;;;16.80;15.15;;;11.80;99.90;;;;;;6107645;23;20250;-72
2022/10/12 04:47:57;;;;;;;20.10;17.08;;;11.90;99.90;;;;;;6112446;23;20244;-73
2022/10/12 04:50:25;;;;;;;17.52;15.73;;;11.90;99.90;;;;;;6107507;23;20203;-73
2022/10/12 04:52:52;;;;;;;19.63;16.67;;;12.00;99.90;;;;;;6120886;23;20199;-73
2022/10/12 04:55:19;;;;;;;16.77;15.18;;;12.10;99.90;;;;;;6119607;23;20195;-73
2022/10/12 04:57:46;;;;;;;16.15;14.30;;;12.10;99.90;;;;;;6120802;23;20612;-73
2022/10/12 05:00:14;;;;;;;16.48;14.90;;;12.20;99.90;;;;;;6094637;23;20709;-73
2022/10/12 05:02:41;;;;;;;17.70;16.00;;;12.30;99.90;;;;;;6120894;23;20795;-73
2022/10/12 05:05:09;;;;;;;17.42;15.70;;;12.30;99.90;;;;;;6120653;23;20196;-73
2022/10/12 05:07:55;;;;;;;16.77;15.10;;;12.40;99.90;;;;;;6121452;23;20248;-73
2022/10/12 05:10:23;;;;;;;16.30;14.90;;;12.40;99.90;;;;;;6118178;23;20253;-73
2022/10/12 05:12:51;;;;;;;19.90;17.00;;;12.40;99.90;;;;;;6095467;23;20191;-73
2022/10/12 05:15:18;;;;;;;18.98;17.10;;;12.50;99.90;;;;;;6120844;23;20533;-73
2022/10/12 05:17:46;;;;;;;17.60;15.65;;;12.50;99.90;;;;;;6120015;23;20282;-73
2022/10/12 05:20:14;;;;;;;20.23;18.00;;;12.50;99.90;;;;;;6120229;23;20199;-73
2022/10/12 05:22:41;;;;;;;19.38;17.38;;;12.50;99.90;;;;;;6121297;23;20187;-73
2022/10/12 05:25:09;;;;;;;17.90;16.05;;;12.50;99.90;;;;;;6120175;23;20219;-73
2022/10/12 05:27:36;;;;;;;18.70;16.85;;;12.60;99.90;;;;;;6121972;23;20262;-73
2022/10/12 05:30:04;;;;;;;20.85;17.60;;;12.60;99.90;;;;;;6121401;23;20191;-73
2022/10/12 05:32:31;;;;;;;20.73;17.80;;;12.60;99.90;;;;;;6121304;23;20649;-73
2022/10/12 05:34:58;;;;;;;18.73;16.73;;;12.60;99.90;;;;;;6121090;23;20196;-74
2022/10/12 05:37:26;;;;;;;19.73;17.80;;;12.70;99.90;;;;;;6119481;23;20257;-74
2022/10/12 05:39:54;;;;;;;21.27;19.20;;;12.60;99.90;;;;;;6120161;23;20266;-73
2022/10/12 05:42:21;;;;;;;19.60;17.55;;;12.60;99.90;;;;;;6121198;23;20198;-73
2022/10/12 05:44:48;;;;;;;21.17;18.85;;;12.50;99.90;;;;;;6120716;23;20652;-74
2022/10/12 05:47:15;;;;;;;21.17;18.95;;;12.50;99.90;;;;;;6120748;23;20184;-74
2022/10/12 05:49:43;;;;;;;20.63;18.42;;;12.60;99.90;;;;;;6119812;23;20195;-74
2022/10/12 05:52:10;;;;;;;20.85;18.73;;;12.60;99.90;;;;;;6120723;23;20223;-74
2022/10/12 05:54:38;;;;;;;21.33;18.40;;;12.60;99.90;;;;;;6143166;23;20192;-74
2022/10/12 05:57:05;;;;;;;19.67;17.70;;;12.60;99.90;;;;;;6121109;23;20456;-74
2022/10/12 05:59:32;;;;;;;20.83;18.30;;;12.60;99.90;;;;;;6120514;23;20408;-74
2022/10/12 06:02:00;;;;;;;19.50;17.48;;;12.60;99.90;;;;;;6121337;23;20609;-74
2022/10/12 06:04:27;;;;;;;18.40;16.58;;;12.60;99.90;;;;;;6119442;23;20195;-73
2022/10/12 06:06:54;;;;;;;19.25;17.38;;;12.60;99.90;;;;;;6121076;23;20258;-73
2022/10/12 06:09:21;;;;;;;19.10;17.40;;;12.70;99.90;;;;;;6119913;23;20553;-74
2022/10/12 06:11:50;;;;;;;21.08;18.98;;;12.70;99.90;;;;;;6108940;23;20843;-73
2022/10/12 06:14:17;;;;;;;20.87;18.97;;;12.80;99.90;;;;;;6120399;23;20196;-73
2022/10/12 06:16:44;;;;;;;20.65;18.45;;;12.80;99.90;;;;;;6120199;23;20450;-73
2022/10/12 06:19:11;;;;;;;18.00;16.25;;;12.70;99.90;;;;;;6121026;23;20211;-74
2022/10/12 06:21:39;;;;;;;19.48;17.48;;;12.70;99.90;;;;;;6120282;23;20244;-74
2022/10/12 06:24:07;;;;;;;18.83;16.80;;;12.70;99.90;;;;;;6119883;23;20282;-74
2022/10/12 06:26:34;;;;;;;18.17;16.52;;;12.60;99.90;;;;;;6120618;23;20603;-74
2022/10/12 06:29:03;;;;;;;17.85;16.30;;;12.70;99.90;;;;;;6120091;23;20270;-74
2022/10/12 06:31:31;;;;;;;17.92;16.02;;;12.70;99.90;;;;;;6120561;23;20194;-73
2022/10/12 06:33:58;;;;;;;18.55;16.70;;;12.80;99.90;;;;;;6118668;23;20192;-74
2022/10/12 06:36:25;;;;;;;18.63;16.83;;;12.80;99.90;;;;;;6120682;23;20243;-74
2022/10/12 06:38:52;;;;;;;18.47;16.77;;;12.80;99.90;;;;;;6117543;23;20513;-74
2022/10/12 06:41:20;;;;;;;19.13;17.43;;;12.80;99.90;;;;;;6119056;23;20520;-74
2022/10/12 06:43:47;;;;;;;20.80;18.60;;;12.80;99.90;;;;;;6117812;23;20434;-74
2022/10/12 06:46:16;;;;;;;19.77;17.77;;;13.00;99.90;;;;;;6118751;23;20433;-73
2022/10/12 06:48:42;;;;;;;20.20;17.37;;;12.90;99.90;;;;;;6119528;23;21105;-74
2022/10/12 06:51:09;;;;;;;20.37;18.37;;;12.90;99.90;;;;;;6118791;23;20965;-74
2022/10/12 06:53:37;;;;;;;18.00;16.20;;;12.90;99.90;;;;;;6119429;23;20476;-74
2022/10/12 06:56:06;;;;;;;21.47;16.40;;;12.90;99.90;;;;;;6119454;23;20422;-74
2022/10/12 06:58:33;;;;;;;26.57;19.03;;;13.00;99.90;;;;;;6118072;23;20486;-74
2022/10/12 07:01:03;;;;;;;24.03;19.20;;;13.00;99.90;;;;;;6120462;23;20517;-73
2022/10/12 07:03:31;;;;;;;21.15;18.92;;;12.90;99.90;;;;;;6167500;23;20452;-73
2022/10/12 07:06:06;;;;;;;22.27;18.73;;;12.80;99.90;;;;;;6119435;23;20595;-73
2022/10/12 07:08:33;;;;;;;23.15;20.17;;;12.80;99.90;;;;;;6118668;23;20607;-73
2022/10/12 07:11:01;;;;;;;21.83;19.50;;;12.80;99.90;;;;;;6120417;23;20211;-74
2022/10/12 07:13:29;;;;;;;22.37;20.13;;;12.80;99.90;;;;;;6119474;23;20800;-74
2022/10/12 07:15:56;;;;;;;22.67;20.38;;;12.70;99.90;;;;;;6120029;23;20435;-73
2022/10/12 07:18:23;;;;;;;24.42;20.67;;;12.70;99.90;;;;;;6120388;23;20705;-74
2022/10/12 07:20:53;;;;;;;23.08;20.75;;;12.80;99.90;;;;;;6118639;23;20588;-74
2022/10/12 07:23:21;;;;;;;23.75;21.25;;;12.80;99.90;;;;;;6119821;23;20226;-73
2022/10/12 07:25:49;;;;;;;23.85;21.52;;;12.80;99.90;;;;;;6119960;23;20191;-73
2022/10/12 07:28:16;;;;;;;24.93;22.17;;;12.90;99.90;;;;;;6120365;23;20191;-73
2022/10/12 07:30:44;;;;;;;25.17;22.57;;;12.90;99.90;;;;;;6119437;23;21085;-73
2022/10/12 07:33:11;;;;;;;22.27;20.00;;;13.00;99.90;;;;;;6107827;23;20488;-73
2022/10/12 07:35:39;;;;;;;23.87;21.50;;;13.10;99.90;;;;;;6121342;23;20487;-74
2022/10/12 07:38:07;;;;;;;24.97;22.50;;;13.10;99.90;;;;;;6119370;23;20465;-74
2022/10/12 07:40:34;;;;;;;23.60;21.03;;;13.10;99.90;;;;;;6121737;23;20978;-74
2022/10/12 07:43:01;;;;;;;23.03;20.73;;;13.20;99.90;;;;;;6120814;23;20525;-74
2022/10/12 07:45:29;;;;;;;24.93;22.43;;;13.20;99.90;;;;;;6121436;23;20465;-73
2022/10/12 07:47:56;;;;;;;23.57;21.27;;;13.30;99.90;;;;;;6118800;23;20513;-73
2022/10/12 07:50:24;;;;;;;24.93;20.47;;;13.50;99.90;;;;;;6121317;23;20529;-74
2022/10/12 07:52:51;;;;;;;23.33;20.87;;;13.50;99.90;;;;;;6120576;23;20498;-74
2022/10/12 07:55:20;;;;;;;21.17;18.90;;;13.40;99.90;;;;;;6121739;23;20471;-74
2022/10/12 07:57:47;;;;;;;20.23;18.13;;;13.40;99.90;;;;;;6120420;23;20458;-74
2022/10/12 08:00:15;;;;;;;21.73;19.53;;;13.50;99.90;;;;;;6118446;23;20469;-74
2022/10/12 08:02:42;;;;;;;20.43;18.53;;;13.60;99.90;;;;;;6118677;23;20947;-74
2022/10/12 08:05:09;;;;;;;20.87;18.80;;;13.70;99.90;;;;;;6119886;23;20436;-73
2022/10/12 08:07:37;;;;;;;20.47;18.43;;;13.60;99.90;;;;;;6121641;23;20439;-74
2022/10/12 08:10:05;;;;;;;20.37;18.50;;;13.60;99.90;;;;;;6120387;23;20921;-74
2022/10/12 08:12:33;;;;;;;21.33;19.43;;;13.70;99.90;;;;;;6119947;23;20509;-73
2022/10/12 08:15:00;;;;;;;20.57;18.77;;;13.60;99.90;;;;;;6119116;23;20440;-74
2022/10/12 08:17:27;;;;;;;19.57;17.67;;;13.70;99.90;;;;;;6121528;23;20482;-74
2022/10/12 08:19:54;;;;;;;21.80;19.73;;;13.80;99.90;;;;;;6120667;23;21062;-74
2022/10/12 08:22:22;;;;;;;20.60;18.70;;;13.90;99.90;;;;;;6121382;23;20433;-73
2022/10/12 08:24:49;;;;;;;20.10;18.23;;;14.00;99.90;;;;;;6120120;23;20461;-74
2022/10/12 08:27:16;;;;;;;20.53;18.43;;;14.00;99.90;;;;;;6121528;23;20460;-74
2022/10/12 08:29:44;;;;;;;20.80;18.80;;;14.10;99.90;;;;;;6120616;23;20529;-74
2022/10/12 08:32:12;;;;;;;20.17;18.27;;;14.30;99.90;;;;;;6120273;23;20466;-74
2022/10/12 08:34:39;;;;;;;19.83;18.00;;;14.40;99.90;;;;;;6120319;23;20949;-74
2022/10/12 08:37:06;;;;;;;20.00;18.00;;;14.50;99.90;;;;;;6118465;23;20499;-74
2022/10/12 08:39:33;;;;;;;19.90;17.80;;;14.60;99.90;;;;;;6109386;23;20490;-74
2022/10/12 08:42:13;;;;;;;19.43;17.53;;;14.70;99.90;;;;;;6120863;23;20445;-74
2022/10/12 08:44:52;;;;;;;21.30;19.37;;;14.80;99.90;;;;;;6109968;23;20838;-74
2022/10/12 08:47:27;;;;;;;20.03;18.23;;;14.80;99.90;;;;;;6120706;23;20429;-74
2022/10/12 08:49:54;;;;;;;21.20;19.10;;;14.60;99.90;;;;;;6121013;23;20570;-74
2022/10/12 08:52:28;;;;;;;18.73;17.07;;;14.60;99.90;;;;;;6119627;23;20507;-74
2022/10/12 08:55:00;;;;;;;21.50;19.00;;;14.80;99.90;;;;;;6119643;23;20507;-74
2022/10/12 08:57:27;;;;;;;20.80;17.50;;;14.90;99.90;;;;;;6118357;23;20507;-73
2022/10/12 08:59:55;;;;;;;19.73;17.90;;;15.00;99.90;;;;;;6120768;23;20858;-74
2022/10/12 09:02:44;;;;;;;20.57;18.47;;;15.00;99.90;;;;;;6094359;23;20441;-74
2022/10/12 09:05:15;;;;;;;19.20;17.40;;;15.10;99.90;;;;;;6118995;23;20934;-74
2022/10/12 09:07:47;;;;;;;19.73;17.80;;;15.40;99.90;;;;;;6109285;23;20433;-74
2022/10/12 09:10:28;;;;;;;19.53;17.63;;;15.70;99.90;;;;;;6120426;23;20543;-73
2022/10/12 09:13:05;;;;;;;20.00;17.97;;;16.00;99.90;;;;;;6112982;23;20431;-73
2022/10/12 09:15:37;;;;;;;18.57;16.67;;;16.30;99.90;;;;;;6120377;23;20437;-74
2022/10/12 09:18:14;;;;;;;18.77;17.03;;;16.60;99.90;;;;;;6120756;23;20453;-74
2022/10/12 09:20:46;;;;;;;18.80;17.00;;;16.80;99.90;;;;;;6118886;23;20468;-74
2022/10/12 09:23:23;;;;;;;19.27;17.63;;;17.20;99.90;;;;;;6121753;23;20848;-74
2022/10/12 09:25:51;;;;;;;19.40;17.50;;;17.60;99.90;;;;;;6113464;23;20429;-74
2022/10/12 09:28:25;;;;;;;18.97;17.17;;;17.80;99.90;;;;;;6121133;23;20512;-74
2022/10/12 09:31:09;;;;;;;20.87;18.60;;;17.80;99.90;;;;;;6112091;23;20516;-74
2022/10/12 09:33:41;;;;;;;20.20;18.33;;;17.70;99.90;;;;;;6121179;23;20477;-74
2022/10/12 09:36:12;;;;;;;20.30;18.13;;;17.60;99.90;;;;;;6121568;23;20504;-74
2022/10/12 09:38:39;;;;;;;20.00;18.00;;;17.50;99.90;;;;;;6120570;23;20477;-73
2022/10/12 09:41:11;;;;;;;19.70;17.73;;;17.40;99.90;;;;;;6121168;23;20451;-73
2022/10/12 09:43:39;;;;;;;20.97;18.97;;;17.20;99.90;;;;;;6118944;23;20532;-74
2022/10/12 09:46:12;;;;;;;21.40;19.30;;;17.10;99.90;;;;;;6118817;23;20421;-73
2022/10/12 09:48:56;;;;;;;20.53;18.33;;;16.90;99.90;;;;;;6118858;23;20434;-74
2022/10/12 09:51:23;;;;;;;20.23;18.23;;;16.80;99.90;;;;;;6121047;23;20530;-74
2022/10/12 09:53:52;;;;;;;20.83;18.23;;;16.80;99.90;;;;;;6120220;23;20467;-73
2022/10/12 09:56:25;;;;;;;21.40;19.20;;;16.70;99.90;;;;;;6119768;23;20437;-73
2022/10/12 09:58:56;;;;;;;19.27;17.30;;;16.50;99.90;;;;;;6120261;23;20515;-74
2022/10/12 10:01:26;;;;;;;18.53;16.53;;;16.50;99.90;;;;;;6118373;23;20445;-74
2022/10/12 10:04:11;;;;;;;19.70;17.77;;;16.40;99.90;;;;;;6120972;23;20779;-74
2022/10/12 10:06:39;;;;;;;20.20;18.20;;;16.30;99.90;;;;;;6117494;23;20472;-73
2022/10/12 10:09:15;;;;;;;19.83;17.30;;;16.30;99.90;;;;;;6119930;23;20442;-74
2022/10/12 10:11:43;;;;;;;20.63;18.53;;;16.30;99.90;;;;;;6118198;23;20925;-73
2022/10/12 10:14:15;;;;;;;20.03;18.03;;;16.30;99.90;;;;;;6121365;23;20438;-74
2022/10/12 10:16:49;;;;;;;20.57;18.53;;;16.30;99.90;;;;;;6119480;23;20945;-74
2022/10/12 10:19:19;;;;;;;20.07;18.03;;;16.30;99.90;;;;;;6119642;23;20461;-73
2022/10/12 10:21:46;;;;;;;21.17;18.90;;;16.20;99.90;;;;;;6119792;23;20434;-73
2022/10/12 10:24:26;;;;;;;20.87;18.70;;;16.20;99.90;;;;;;6120378;23;20429;-72
2022/10/12 10:26:55;;;;;;;20.97;18.80;;;16.10;99.90;;;;;;6113878;23;20437;-73
2022/10/12 10:29:34;;;;;;;20.50;18.40;;;16.00;99.90;;;;;;6119574;23;20432;-71
2022/10/12 10:32:22;;;;;;;21.07;18.63;;;16.00;99.90;;;;;;6120217;23;20520;-73
2022/10/12 10:35:01;;;;;;;20.73;18.70;;;16.20;99.90;;;;;;6121367;23;20436;-71
2022/10/12 10:37:30;;;;;;;22.47;18.90;;;16.20;99.90;;;;;;6091975;23;20545;-72
2022/10/12 10:39:58;;;;;;;17.50;15.70;;;16.20;99.90;;;;;;6110961;23;20446;-72
2022/10/12 10:42:28;;;;;;;18.50;16.50;;;16.10;99.90;;;;;;6120613;23;20436;-73
2022/10/12 10:45:01;;;;;;;18.10;16.13;;;16.10;99.90;;;;;;6118591;23;20434;-72
2022/10/12 10:47:31;;;;;;;18.20;16.50;;;16.10;99.90;;;;;;6120008;23;20422;-72
2022/10/12 10:50:01;;;;;;;19.33;16.43;;;16.10;99.90;;;;;;6120642;23;20421;-73
2022/10/12 10:52:30;;;;;;;19.90;16.20;;;16.20;99.90;;;;;;6120167;23;20433;-72
2022/10/12 10:55:18;;;;;;;17.90;16.00;;;16.30;99.90;;;;;;6120838;23;20911;-72
2022/10/12 10:57:53;;;;;;;15.87;14.20;;;16.30;99.90;;;;;;6119545;23;20552;-72
2022/10/12 11:00:22;;;;;;;15.20;13.70;;;16.40;99.90;;;;;;6119948;23;20441;-72
2022/10/12 11:02:55;;;;;;;13.93;12.53;;;16.30;99.90;;;;;;6120681;23;20712;-73
2022/10/12 11:05:26;;;;;;;14.17;12.87;;;16.30;99.90;;;;;;6119499;23;20935;-73
2022/10/12 11:07:55;;;;;;;15.20;13.67;;;16.40;99.90;;;;;;6120404;23;20431;-73
2022/10/12 11:10:27;;;;;;;14.77;13.27;;;16.40;99.90;;;;;;6119414;23;20520;-73
2022/10/12 11:12:59;;;;;;;13.27;11.97;;;16.50;99.90;;;;;;6121496;23;20440;-73
2022/10/12 11:15:33;;;;;;;14.60;12.80;;;16.60;99.90;;;;;;6120491;23;20516;-73
2022/10/12 11:18:11;;;;;;;17.10;12.70;;;16.80;99.90;;;;;;6110780;23;20492;-73
2022/10/12 11:20:46;;;;;;;12.43;11.23;;;17.00;99.90;;;;;;6120043;23;20465;-73
2022/10/12 11:23:32;;;;;;;15.70;12.73;;;17.20;99.90;;;;;;6121912;23;20414;-76
2022/10/12 11:26:08;;;;;;;15.27;12.20;;;17.00;99.90;;;;;;6121374;23;20468;-73
2022/10/12 11:28:37;;;;;;;15.17;12.90;;;17.00;99.90;;;;;;6120498;23;20481;-72
2022/10/12 11:31:07;;;;;;;12.77;11.40;;;17.10;99.90;;;;;;6109370;23;20441;-82
2022/10/12 11:33:40;;;;;;;13.00;11.60;;;17.30;99.90;;;;;;6119553;23;20429;-81
2022/10/12 11:36:13;;;;;;;13.07;11.07;;;17.40;99.90;;;;;;6096227;23;20926;-81
2022/10/12 11:38:45;;;;;;;11.57;10.53;;;17.40;99.90;;;;;;6119424;23;20462;-81
2022/10/12 11:41:16;;;;;;;13.97;12.03;;;17.40;99.90;;;;;;6109361;23;20930;-81
2022/10/12 11:43:49;;;;;;;12.10;10.90;;;17.50;99.90;;;;;;6120066;23;20934;-81
2022/10/12 11:46:21;;;;;;;12.60;11.30;;;17.60;99.90;;;;;;6119250;23;20483;-80
2022/10/12 11:48:56;;;;;;;13.10;11.70;;;17.60;99.90;;;;;;6120341;23;20524;-80
2022/10/12 11:51:23;;;;;;;15.60;11.13;;;17.50;99.90;;;;;;6120882;23;20439;-80
2022/10/12 11:53:59;;;;;;;12.50;11.30;;;17.50;99.90;;;;;;6119964;23;20436;-81
2022/10/12 11:56:32;;;;;;;12.43;11.23;;;17.60;99.90;;;;;;6119513;23;20933;-81
2022/10/12 11:59:04;;;;;;;11.43;10.23;;;17.60;99.90;;;;;;6120711;23;20504;-77
2022/10/12 12:01:53;;;;;;;10.77;9.60;;;17.50;99.90;;;;;;6120867;23;20906;-76
2022/10/12 12:04:28;;;;;;;11.40;10.20;;;17.70;99.90;;;;;;6097848;23;20503;-76
2022/10/12 12:07:17;;;;;;;11.03;10.00;;;17.90;99.90;;;;;;6120440;23;20527;-81
2022/10/12 12:09:47;;;;;;;11.77;9.50;;;18.00;99.90;;;;;;6121056;23;20445;-82
2022/10/12 12:12:27;;;;;;;12.57;10.37;;;18.10;99.90;;;;;;6121811;23;20486;-83
2022/10/12 12:15:07;;;;;;;12.10;10.80;;;18.10;99.90;;;;;;6117159;23;20437;-83
2022/10/12 12:17:35;;;;;;;11.00;9.80;;;18.10;99.90;;;;;;6119394;23;20448;-83
2022/10/12 12:20:43;;;;;;;11.13;9.30;;;18.00;99.90;;;;;;6122185;23;20444;-81
2022/10/12 12:23:20;;;;;;;10.90;8.97;;;18.00;99.90;;;;;;6121302;23;20440;-81
2022/10/12 12:26:03;;;;;;;12.03;8.70;;;18.10;99.90;;;;;;6121231;23;20438;-82
2022/10/12 12:28:32;;;;;;;10.33;8.90;;;18.30;99.90;;;;;;6121847;23;20911;-82
2022/10/12 12:31:02;;;;;;;10.67;9.60;;;18.70;99.90;;;;;;6120635;23;20540;-79
2022/10/12 12:33:32;;;;;;;10.90;9.87;;;19.00;99.90;;;;;;6121577;23;20510;-81
2022/10/12 12:36:03;;;;;;;11.63;10.43;;;19.00;99.90;;;;;;6120125;23;20441;-80
2022/10/12 12:38:33;;;;;;;11.10;10.00;;;19.00;99.90;;;;;;6120277;23;20445;-78
2022/10/12 12:41:07;;;;;;;14.53;10.43;;;18.80;99.90;;;;;;6120251;23;20465;-82
2022/10/12 12:43:51;;;;;;;10.80;9.70;;;18.80;99.90;;;;;;6111679;23;20931;-77